sensor_id;sensor_type;location;lat;lon;timestamp;pressure;altitude;pressure_sealevel;temperature;humidity
31483;BME280;18103;52.246;8.052;2022-11-20T00:01:25;100187.03;;;-2.72;81.66
31483;BME280;18103;52.246;8.052;2022-11-20T00:03:52;100193.25;;;-2.79;82.03
31483;BME280;18103;52.246;8.052;2022-11-20T00:06:19;100193.91;;;-2.71;81.93
31483;BME280;18103;52.246;8.052;2022-11-20T00:08:46;100190.38;;;-2.68;82.19
31483;BME280;18103;52.246;8.052;2022-11-20T00:11:22;100185.50;;;-2.79;81.92
31483;BME280;18103;52.246;8.052;2022-11-20T00:13:51;100184.44;;;-2.72;81.84
31483;BME280;18103;52.246;8.052;2022-11-20T00:16:19;100193.34;;;-2.82;82.13
31483;BME280;18103;52.246;8.052;2022-11-20T00:18:46;100186.41;;;-2.82;81.66
31483;BME280;18103;52.246;8.052;2022-11-20T00:21:14;100183.09;;;-2.87;82.48
31483;BME280;18103;52.246;8.052;2022-11-20T00:23:40;100184.88;;;-2.89;82.27
31483;BME280;18103;52.246;8.052;2022-11-20T00:26:08;100182.38;;;-2.92;82.64
31483;BME280;18103;52.246;8.052;2022-11-20T00:28:34;100187.50;;;-2.90;82.30
31483;BME280;18103;52.246;8.052;2022-11-20T00:31:08;100191.06;;;-2.95;82.32
31483;BME280;18103;52.246;8.052;2022-11-20T00:33:34;100178.72;;;-2.83;81.94
31483;BME280;18103;52.246;8.052;2022-11-20T00:36:04;100173.03;;;-2.96;81.52
31483;BME280;18103;52.246;8.052;2022-11-20T00:38:31;100172.81;;;-2.88;81.28
31483;BME280;18103;52.246;8.052;2022-11-20T00:40:57;100173.91;;;-2.97;81.03
31483;BME280;18103;52.246;8.052;2022-11-20T00:43:23;100179.28;;;-3.06;81.67
31483;BME280;18103;52.246;8.052;2022-11-20T00:45:48;100175.13;;;-3.12;81.85
31483;BME280;18103;52.246;8.052;2022-11-20T00:48:14;100179.28;;;-3.06;81.93
31483;BME280;18103;52.246;8.052;2022-11-20T00:50:40;100183.66;;;-3.08;81.63
31483;BME280;18103;52.246;8.052;2022-11-20T00:53:06;100178.72;;;-3.18;82.50
31483;BME280;18103;52.246;8.052;2022-11-20T00:55:31;100180.38;;;-3.15;82.09
31483;BME280;18103;52.246;8.052;2022-11-20T00:57:57;100179.63;;;-3.19;82.02
31483;BME280;18103;52.246;8.052;2022-11-20T01:00:22;100179.56;;;-3.17;82.04
31483;BME280;18103;52.246;8.052;2022-11-20T01:02:47;100173.72;;;-3.24;82.04
31483;BME280;18103;52.246;8.052;2022-11-20T01:05:13;100171.09;;;-3.22;82.25
31483;BME280;18103;52.246;8.052;2022-11-20T01:07:38;100166.94;;;-3.28;81.74
31483;BME280;18103;52.246;8.052;2022-11-20T01:10:04;100166.09;;;-3.29;81.83
31483;BME280;18103;52.246;8.052;2022-11-20T01:12:30;100170.34;;;-3.28;81.59
31483;BME280;18103;52.246;8.052;2022-11-20T01:14:55;100170.22;;;-3.21;82.23
31483;BME280;18103;52.246;8.052;2022-11-20T01:17:20;100178.72;;;-3.18;81.60
31483;BME280;18103;52.246;8.052;2022-11-20T01:19:49;100179.63;;;-3.19;81.90
31483;BME280;18103;52.246;8.052;2022-11-20T01:22:14;100175.47;;;-3.26;81.89
31483;BME280;18103;52.246;8.052;2022-11-20T01:24:40;100177.38;;;-3.33;82.21
31483;BME280;18103;52.246;8.052;2022-11-20T01:27:05;100172.09;;;-3.28;82.11
31483;BME280;18103;52.246;8.052;2022-11-20T01:29:30;100169.63;;;-3.33;81.98
31483;BME280;18103;52.246;8.052;2022-11-20T01:31:56;100169.59;;;-3.31;82.26
31483;BME280;18103;52.246;8.052;2022-11-20T01:34:22;100163.53;;;-3.30;81.43
31483;BME280;18103;52.246;8.052;2022-11-20T01:36:52;100164.56;;;-3.37;81.50
31483;BME280;18103;52.246;8.052;2022-11-20T01:39:23;100166.38;;;-3.41;81.81
31483;BME280;18103;52.246;8.052;2022-11-20T01:41:50;100163.13;;;-3.49;82.25
31483;BME280;18103;52.246;8.052;2022-11-20T01:44:45;100157.09;;;-3.48;82.33
31483;BME280;18103;52.246;8.052;2022-11-20T01:47:14;100154.44;;;-3.45;82.13
31483;BME280;18103;52.246;8.052;2022-11-20T01:49:50;100156.03;;;-3.39;81.93
31483;BME280;18103;52.246;8.052;2022-11-20T01:52:24;100155.19;;;-3.40;82.46
31483;BME280;18103;52.246;8.052;2022-11-20T01:54:59;100151.81;;;-3.44;81.84
31483;BME280;18103;52.246;8.052;2022-11-20T01:57:29;100151.19;;;-3.53;82.23
31483;BME280;18103;52.246;8.052;2022-11-20T02:00:00;100158.09;;;-3.55;82.09
31483;BME280;18103;52.246;8.052;2022-11-20T02:02:26;100152.06;;;-3.54;82.11
31483;BME280;18103;52.246;8.052;2022-11-20T02:04:54;100145.22;;;-3.57;82.10
31483;BME280;18103;52.246;8.052;2022-11-20T02:07:23;100137.47;;;-3.55;82.30
31483;BME280;18103;52.246;8.052;2022-11-20T02:09:49;100136.75;;;-3.61;81.76
31483;BME280;18103;52.246;8.052;2022-11-20T02:12:14;100139.25;;;-3.57;82.08
31483;BME280;18103;52.246;8.052;2022-11-20T02:15:00;100128.88;;;-3.56;82.26
31483;BME280;18103;52.246;8.052;2022-11-20T02:17:25;100130.72;;;-3.61;81.78
31483;BME280;18103;52.246;8.052;2022-11-20T02:19:51;100126.50;;;-3.64;81.84
31483;BME280;18103;52.246;8.052;2022-11-20T02:22:33;100122.22;;;-3.65;81.42
31483;BME280;18103;52.246;8.052;2022-11-20T02:25:02;100127.50;;;-3.69;81.69
31483;BME280;18103;52.246;8.052;2022-11-20T02:27:29;100120.63;;;-3.70;81.61
31483;BME280;18103;52.246;8.052;2022-11-20T02:30:03;100122.34;;;-3.71;82.35
31483;BME280;18103;52.246;8.052;2022-11-20T02:32:34;100119.75;;;-3.71;82.12
31483;BME280;18103;52.246;8.052;2022-11-20T02:37:57;100113.72;;;-3.70;82.70
31483;BME280;18103;52.246;8.052;2022-11-20T02:40:23;100113.81;;;-3.73;82.61
31483;BME280;18103;52.246;8.052;2022-11-20T02:42:55;100110.34;;;-3.72;82.79
31483;BME280;18103;52.246;8.052;2022-11-20T02:45:22;100109.44;;;-3.71;82.28
31483;BME280;18103;52.246;8.052;2022-11-20T02:47:48;100100.09;;;-3.75;82.37
31483;BME280;18103;52.246;8.052;2022-11-20T02:50:13;100096.63;;;-3.74;82.53
31483;BME280;18103;52.246;8.052;2022-11-20T02:52:39;100107.91;;;-3.78;82.52
31483;BME280;18103;52.246;8.052;2022-11-20T02:55:05;100106.06;;;-3.73;83.11
31483;BME280;18103;52.246;8.052;2022-11-20T02:57:30;100112.91;;;-3.70;82.55
31483;BME280;18103;52.246;8.052;2022-11-20T02:59:56;100113.88;;;-3.76;82.60
31483;BME280;18103;52.246;8.052;2022-11-20T03:02:21;100118.94;;;-3.71;82.54
31483;BME280;18103;52.246;8.052;2022-11-20T03:04:47;100118.97;;;-3.73;82.56
31483;BME280;18103;52.246;8.052;2022-11-20T03:07:12;100117.47;;;-3.82;82.85
31483;BME280;18103;52.246;8.052;2022-11-20T03:09:37;100112.34;;;-3.85;82.97
31483;BME280;18103;52.246;8.052;2022-11-20T03:12:03;100107.22;;;-3.86;82.33
31483;BME280;18103;52.246;8.052;2022-11-20T03:14:31;100107.28;;;-3.88;82.45
31483;BME280;18103;52.246;8.052;2022-11-20T03:16:57;100104.63;;;-3.85;81.61
31483;BME280;18103;52.246;8.052;2022-11-20T03:19:23;100105.59;;;-3.89;82.17
31483;BME280;18103;52.246;8.052;2022-11-20T03:21:48;100107.28;;;-3.88;81.94
31483;BME280;18103;52.246;8.052;2022-11-20T03:24:14;100108.94;;;-3.85;82.03
31483;BME280;18103;52.246;8.052;2022-11-20T03:26:40;100103.06;;;-3.92;82.50
31483;BME280;18103;52.246;8.052;2022-11-20T03:29:06;100099.66;;;-3.92;82.16
31483;BME280;18103;52.246;8.052;2022-11-20T03:31:34;100097.16;;;-3.96;82.37
31483;BME280;18103;52.246;8.052;2022-11-20T03:34:00;100099.69;;;-3.94;82.10
31483;BME280;18103;52.246;8.052;2022-11-20T03:36:27;100087.63;;;-3.93;82.11
31483;BME280;18103;52.246;8.052;2022-11-20T03:38:54;100085.13;;;-3.97;82.22
31483;BME280;18103;52.246;8.052;2022-11-20T03:41:22;100087.78;;;-4.00;81.99
31483;BME280;18103;52.246;8.052;2022-11-20T03:43:52;100085.22;;;-4.00;81.80
31483;BME280;18103;52.246;8.052;2022-11-20T03:46:17;100084.94;;;-3.87;81.39
31483;BME280;18103;52.246;8.052;2022-11-20T03:48:43;100087.66;;;-3.95;81.96
31483;BME280;18103;52.246;8.052;2022-11-20T03:53:44;100082.31;;;-3.86;81.74
31483;BME280;18103;52.246;8.052;2022-11-20T03:56:12;100077.28;;;-3.92;81.45
31483;BME280;18103;52.246;8.052;2022-11-20T03:58:39;100075.50;;;-3.88;81.75
31483;BME280;18103;52.246;8.052;2022-11-20T04:01:10;100081.59;;;-3.92;82.15
31483;BME280;18103;52.246;8.052;2022-11-20T04:03:37;100081.53;;;-3.89;81.66
31483;BME280;18103;52.246;8.052;2022-11-20T04:06:08;100079.09;;;-3.96;81.64
31483;BME280;18103;52.246;8.052;2022-11-20T04:08:38;100081.84;;;-4.03;81.80
31483;BME280;18103;52.246;8.052;2022-11-20T04:13:42;100075.06;;;-4.07;81.70
31483;BME280;18103;52.246;8.052;2022-11-20T04:16:10;100068.16;;;-4.05;81.89
31483;BME280;18103;52.246;8.052;2022-11-20T04:18:36;100071.44;;;-3.99;82.08
31483;BME280;18103;52.246;8.052;2022-11-20T04:21:01;100068.88;;;-3.99;81.81
31483;BME280;18103;52.246;8.052;2022-11-20T04:23:27;100068.97;;;-4.03;82.31
31483;BME280;18103;52.246;8.052;2022-11-20T04:25:53;100060.50;;;-4.10;82.62
31483;BME280;18103;52.246;8.052;2022-11-20T04:28:19;100068.97;;;-4.03;82.26
31483;BME280;18103;52.246;8.052;2022-11-20T04:30:45;100062.88;;;-4.01;82.54
31483;BME280;18103;52.246;8.052;2022-11-20T04:33:10;100067.09;;;-3.97;82.56
31483;BME280;18103;52.246;8.052;2022-11-20T04:35:37;100060.50;;;-4.10;82.54
31483;BME280;18103;52.246;8.052;2022-11-20T04:38:02;100061.47;;;-4.14;82.34
31483;BME280;18103;52.246;8.052;2022-11-20T04:40:28;100058.88;;;-4.13;81.99
31483;BME280;18103;52.246;8.052;2022-11-20T04:42:54;100057.22;;;-4.15;82.50
31483;BME280;18103;52.246;8.052;2022-11-20T04:45:20;100058.75;;;-4.08;82.44
31483;BME280;18103;52.246;8.052;2022-11-20T04:47:45;100057.81;;;-4.04;82.57
31483;BME280;18103;52.246;8.052;2022-11-20T04:50:11;100058.63;;;-4.03;82.10
31483;BME280;18103;52.246;8.052;2022-11-20T04:52:37;100059.34;;;-3.97;82.06
31483;BME280;18103;52.246;8.052;2022-11-20T04:55:03;100066.13;;;-3.92;81.80
31483;BME280;18103;52.246;8.052;2022-11-20T04:57:29;100059.16;;;-3.87;81.79
31483;BME280;18103;52.246;8.052;2022-11-20T04:59:54;100064.59;;;-4.00;81.91
31483;BME280;18103;52.246;8.052;2022-11-20T05:02:20;100057.94;;;-4.10;82.12
31483;BME280;18103;52.246;8.052;2022-11-20T05:04:45;100064.66;;;-4.03;82.08
31483;BME280;18103;52.246;8.052;2022-11-20T05:07:11;100059.44;;;-4.00;82.46
31483;BME280;18103;52.246;8.052;2022-11-20T05:09:36;100063.78;;;-4.03;82.80
31483;BME280;18103;52.246;8.052;2022-11-20T05:12:02;100067.09;;;-3.97;82.69
31483;BME280;18103;52.246;8.052;2022-11-20T05:14:27;100063.63;;;-3.96;82.25
31483;BME280;18103;52.246;8.052;2022-11-20T05:16:53;100062.94;;;-4.02;82.70
31483;BME280;18103;52.246;8.052;2022-11-20T05:19:18;100055.44;;;-4.13;83.01
31483;BME280;18103;52.246;8.052;2022-11-20T05:21:43;100056.22;;;-4.09;82.45
31483;BME280;18103;52.246;8.052;2022-11-20T05:24:09;100052.78;;;-4.10;81.79
31483;BME280;18103;52.246;8.052;2022-11-20T05:26:34;100049.50;;;-4.17;82.22
31483;BME280;18103;52.246;8.052;2022-11-20T05:29:00;100051.31;;;-4.20;82.12
31483;BME280;18103;52.246;8.052;2022-11-20T05:31:25;100047.06;;;-4.23;82.32
31483;BME280;18103;52.246;8.052;2022-11-20T05:33:51;100043.69;;;-4.25;81.90
31483;BME280;18103;52.246;8.052;2022-11-20T05:36:17;100041.84;;;-4.20;81.83
31483;BME280;18103;52.246;8.052;2022-11-20T05:38:43;100041.97;;;-4.26;81.72
31483;BME280;18103;52.246;8.052;2022-11-20T05:41:14;100041.94;;;-4.24;81.78
31483;BME280;18103;52.246;8.052;2022-11-20T05:43:41;100041.19;;;-4.30;82.25
31483;BME280;18103;52.246;8.052;2022-11-20T05:46:09;100041.19;;;-4.30;82.30
31483;BME280;18103;52.246;8.052;2022-11-20T05:48:35;100039.53;;;-4.31;81.98
31483;BME280;18103;52.246;8.052;2022-11-20T05:51:02;100036.06;;;-4.31;82.16
31483;BME280;18103;52.246;8.052;2022-11-20T05:53:28;100037.03;;;-4.35;82.48
31483;BME280;18103;52.246;8.052;2022-11-20T05:56:02;100040.44;;;-4.33;81.96
31483;BME280;18103;52.246;8.052;2022-11-20T05:58:28;100029.28;;;-4.34;81.80
31483;BME280;18103;52.246;8.052;2022-11-20T06:00:53;100033.50;;;-4.31;81.74
31483;BME280;18103;52.246;8.052;2022-11-20T06:03:19;100025.91;;;-4.37;82.33
31483;BME280;18103;52.246;8.052;2022-11-20T06:05:47;100026.00;;;-4.40;82.45
31483;BME280;18103;52.246;8.052;2022-11-20T06:08:13;100033.44;;;-4.28;82.09
31483;BME280;18103;52.246;8.052;2022-11-20T06:10:38;100035.38;;;-4.38;82.57
31483;BME280;18103;52.246;8.052;2022-11-20T06:13:04;100030.22;;;-4.38;82.30
31483;BME280;18103;52.246;8.052;2022-11-20T06:15:29;100037.97;;;-4.38;82.12
31483;BME280;18103;52.246;8.052;2022-11-20T06:17:55;100034.56;;;-4.40;81.78
31483;BME280;18103;52.246;8.052;2022-11-20T06:20:21;100038.03;;;-4.42;82.42
31483;BME280;18103;52.246;8.052;2022-11-20T06:22:47;100028.38;;;-4.33;81.60
31483;BME280;18103;52.246;8.052;2022-11-20T06:25:13;100027.00;;;-4.48;81.98
31483;BME280;18103;52.246;8.052;2022-11-20T06:27:38;100020.84;;;-4.40;82.17
31483;BME280;18103;52.246;8.052;2022-11-20T06:30:04;100025.66;;;-4.25;81.65
31483;BME280;18103;52.246;8.052;2022-11-20T06:32:30;100030.75;;;-4.23;81.78
31483;BME280;18103;52.246;8.052;2022-11-20T06:34:55;100029.97;;;-4.27;81.70
31483;BME280;18103;52.246;8.052;2022-11-20T06:37:20;100029.19;;;-4.29;81.51
31483;BME280;18103;52.246;8.052;2022-11-20T06:39:46;100036.97;;;-4.32;82.47
31483;BME280;18103;52.246;8.052;2022-11-20T06:42:11;100034.06;;;-4.17;81.23
31483;BME280;18103;52.246;8.052;2022-11-20T06:44:37;100041.78;;;-4.17;81.53
31483;BME280;18103;52.246;8.052;2022-11-20T06:47:02;100035.84;;;-4.20;81.84
31483;BME280;18103;52.246;8.052;2022-11-20T06:49:27;100035.09;;;-4.25;82.55
31483;BME280;18103;52.246;8.052;2022-11-20T06:51:53;100037.78;;;-4.30;82.29
31483;BME280;18103;52.246;8.052;2022-11-20T06:54:18;100037.84;;;-4.33;82.59
31483;BME280;18103;52.246;8.052;2022-11-20T06:56:47;100035.28;;;-4.33;82.75
31483;BME280;18103;52.246;8.052;2022-11-20T06:59:13;100036.16;;;-4.34;82.97
31483;BME280;18103;52.246;8.052;2022-11-20T07:01:38;100046.41;;;-4.33;82.61
31483;BME280;18103;52.246;8.052;2022-11-20T07:04:04;100045.50;;;-4.30;82.49
31483;BME280;18103;52.246;8.052;2022-11-20T07:06:29;100044.66;;;-4.31;82.72
31483;BME280;18103;52.246;8.052;2022-11-20T07:08:56;100052.72;;;-4.07;81.98
31483;BME280;18103;52.246;8.052;2022-11-20T07:11:22;100050.84;;;-4.00;81.00
31483;BME280;18103;52.246;8.052;2022-11-20T07:13:48;100062.09;;;-4.04;81.65
31483;BME280;18103;52.246;8.052;2022-11-20T07:16:13;100056.91;;;-4.01;81.68
31483;BME280;18103;52.246;8.052;2022-11-20T07:18:39;100058.97;;;-4.17;82.40
31483;BME280;18103;52.246;8.052;2022-11-20T07:21:06;100051.16;;;-4.13;82.72
31483;BME280;18103;52.246;8.052;2022-11-20T07:23:32;100047.34;;;-3.98;82.37
31483;BME280;18103;52.246;8.052;2022-11-20T07:26:02;100043.78;;;-3.92;81.64
31483;BME280;18103;52.246;8.052;2022-11-20T07:28:28;100041.81;;;-3.82;81.85
31483;BME280;18103;52.246;8.052;2022-11-20T07:30:53;100048.78;;;-3.86;81.72
31483;BME280;18103;52.246;8.052;2022-11-20T07:33:19;100046.69;;;-3.70;81.54
31483;BME280;18103;52.246;8.052;2022-11-20T07:35:45;100044.84;;;-3.65;80.57
31483;BME280;18103;52.246;8.052;2022-11-20T07:38:10;100036.69;;;-3.48;80.67
31483;BME280;18103;52.246;8.052;2022-11-20T07:40:36;100042.63;;;-3.46;80.68
31483;BME280;18103;52.246;8.052;2022-11-20T07:43:01;100039.69;;;-3.32;80.25
31483;BME280;18103;52.246;8.052;2022-11-20T07:45:27;100037.19;;;-3.35;80.95
31483;BME280;18103;52.246;8.052;2022-11-20T07:47:52;100035.13;;;-3.22;80.89
31483;BME280;18103;52.246;8.052;2022-11-20T07:50:18;100028.63;;;-3.04;80.52
31483;BME280;18103;52.246;8.052;2022-11-20T07:52:44;100024.19;;;-2.99;80.28
31483;BME280;18103;52.246;8.052;2022-11-20T07:55:10;100020.28;;;-2.82;79.68
31483;BME280;18103;52.246;8.052;2022-11-20T07:57:35;100012.09;;;-2.67;79.29
31483;BME280;18103;52.246;8.052;2022-11-20T08:00:02;100010.25;;;-2.63;79.73
31483;BME280;18103;52.246;8.052;2022-11-20T08:02:28;100001.97;;;-2.45;80.66
31483;BME280;18103;52.246;8.052;2022-11-20T08:04:53;100006.09;;;-2.39;80.57
31483;BME280;18103;52.246;8.052;2022-11-20T08:07:21;100004.00;;;-2.26;80.63
31483;BME280;18103;52.246;8.052;2022-11-20T08:09:47;100008.63;;;-2.09;80.41
31483;BME280;18103;52.246;8.052;2022-11-20T08:12:19;100010.72;;;-1.94;80.03
31483;BME280;18103;52.246;8.052;2022-11-20T08:15:05;100016.19;;;-1.76;80.72
31483;BME280;18103;52.246;8.052;2022-11-20T08:17:31;100014.03;;;-1.63;80.53
31483;BME280;18103;52.246;8.052;2022-11-20T08:19:57;100017.31;;;-1.58;80.43
31483;BME280;18103;52.246;8.052;2022-11-20T08:22:22;100015.63;;;-1.59;80.08
31483;BME280;18103;52.246;8.052;2022-11-20T08:24:49;100014.19;;;-1.68;79.98
31483;BME280;18103;52.246;8.052;2022-11-20T08:27:15;100016.88;;;-1.46;80.11
31483;BME280;18103;52.246;8.052;2022-11-20T08:29:40;100010.59;;;-1.39;80.45
31483;BME280;18103;52.246;8.052;2022-11-20T08:32:05;100010.34;;;-1.31;80.32
31483;BME280;18103;52.246;8.052;2022-11-20T08:34:33;100006.41;;;-1.41;79.39
31483;BME280;18103;52.246;8.052;2022-11-20T08:37:01;100015.47;;;-1.55;79.93
31483;BME280;18103;52.246;8.052;2022-11-20T08:39:27;100013.72;;;-1.54;79.69
31483;BME280;18103;52.246;8.052;2022-11-20T08:41:52;100019.22;;;-1.38;79.49
31483;BME280;18103;52.246;8.052;2022-11-20T08:44:18;100029.41;;;-1.33;79.99
31483;BME280;18103;52.246;8.052;2022-11-20T08:46:43;100034.22;;;-1.23;80.54
31483;BME280;18103;52.246;8.052;2022-11-20T08:49:13;100034.13;;;-1.19;81.08
31483;BME280;18103;52.246;8.052;2022-11-20T08:51:43;100037.53;;;-1.19;81.42
31483;BME280;18103;52.246;8.052;2022-11-20T08:54:09;100036.00;;;-0.99;80.70
31483;BME280;18103;52.246;8.052;2022-11-20T08:56:35;100029.66;;;-0.91;80.12
31483;BME280;18103;52.246;8.052;2022-11-20T08:59:00;100031.38;;;-0.91;80.51
31483;BME280;18103;52.246;8.052;2022-11-20T09:01:26;100031.69;;;-0.99;81.03
31483;BME280;18103;52.246;8.052;2022-11-20T09:03:55;100034.28;;;-0.99;80.83
31483;BME280;18103;52.246;8.052;2022-11-20T09:06:20;100033.19;;;-0.93;80.73
31483;BME280;18103;52.246;8.052;2022-11-20T09:08:46;100038.50;;;-0.96;80.51
31483;BME280;18103;52.246;8.052;2022-11-20T09:11:11;100038.94;;;-0.85;80.16
31483;BME280;18103;52.246;8.052;2022-11-20T09:13:37;100038.59;;;-0.76;79.92
31483;BME280;18103;52.246;8.052;2022-11-20T09:16:05;100037.50;;;-0.92;80.81
31483;BME280;18103;52.246;8.052;2022-11-20T09:18:32;100038.94;;;-0.85;80.83
31483;BME280;18103;52.246;8.052;2022-11-20T09:21:02;100036.06;;;-0.77;80.72
31483;BME280;18103;52.246;8.052;2022-11-20T09:23:32;100029.75;;;-0.70;80.04
31483;BME280;18103;52.246;8.052;2022-11-20T09:26:01;100030.00;;;-0.76;80.11
31483;BME280;18103;52.246;8.052;2022-11-20T09:28:27;100033.84;;;-0.64;78.83
31483;BME280;18103;52.246;8.052;2022-11-20T09:30:52;100024.41;;;-0.65;79.77
31483;BME280;18103;52.246;8.052;2022-11-20T09:33:21;100024.91;;;-0.56;79.75
31483;BME280;18103;52.246;8.052;2022-11-20T09:35:46;100022.94;;;-0.49;79.89
31483;BME280;18103;52.246;8.052;2022-11-20T09:38:12;100025.88;;;-0.58;79.99
31483;BME280;18103;52.246;8.052;2022-11-20T09:40:43;100016.00;;;-0.48;80.08
31483;BME280;18103;52.246;8.052;2022-11-20T09:43:18;100019.22;;;-0.65;80.73
31483;BME280;18103;52.246;8.052;2022-11-20T09:54:16;100017.31;;;-0.38;80.90
31483;BME280;18103;52.246;8.052;2022-11-20T09:56:45;100008.94;;;-0.45;81.95
31483;BME280;18103;52.246;8.052;2022-11-20T09:59:48;100009.19;;;-0.29;81.71
31483;BME280;18103;52.246;8.052;2022-11-20T10:02:37;100003.47;;;-0.15;81.06
31483;BME280;18103;52.246;8.052;2022-11-20T10:05:12;100009.56;;;-0.16;80.93
31483;BME280;18103;52.246;8.052;2022-11-20T10:10:35;99998.81;;;-0.07;81.57
31483;BME280;18103;52.246;8.052;2022-11-20T10:13:20;99999.28;;;0.03;81.11
31483;BME280;18103;52.246;8.052;2022-11-20T10:16:20;99997.16;;;0.13;80.75
31483;BME280;18103;52.246;8.052;2022-11-20T10:19:00;100005.28;;;0.26;80.57
31483;BME280;18103;52.246;8.052;2022-11-20T10:29:36;99986.53;;;0.19;78.35
31483;BME280;18103;52.246;8.052;2022-11-20T10:32:11;99979.19;;;0.08;78.12
31483;BME280;18103;52.246;8.052;2022-11-20T10:35:01;99984.66;;;0.23;78.13
31483;BME280;18103;52.246;8.052;2022-11-20T10:37:32;99981.03;;;0.27;78.43
31483;BME280;18103;52.246;8.052;2022-11-20T10:40:17;99975.97;;;0.44;79.07
31483;BME280;18103;52.246;8.052;2022-11-20T10:42:47;99976.16;;;0.60;79.88
31483;BME280;18103;52.246;8.052;2022-11-20T10:48:11;99976.59;;;0.70;80.64
31483;BME280;18103;52.246;8.052;2022-11-20T10:50:45;99968.31;;;0.81;80.62
31483;BME280;18103;52.246;8.052;2022-11-20T10:59:00;99960.50;;;1.21;78.90
31483;BME280;18103;52.246;8.052;2022-11-20T11:01:27;99954.56;;;0.98;78.50
31483;BME280;18103;52.246;8.052;2022-11-20T11:03:55;99950.50;;;1.11;78.54
31483;BME280;18103;52.246;8.052;2022-11-20T11:08:47;99954.28;;;1.42;80.26
31483;BME280;18103;52.246;8.052;2022-11-20T11:13:45;99944.69;;;1.06;77.58
31483;BME280;18103;52.246;8.052;2022-11-20T11:16:27;99936.09;;;1.23;77.58
31483;BME280;18103;52.246;8.052;2022-11-20T11:19:06;99935.03;;;1.46;78.67
31483;BME280;18103;52.246;8.052;2022-11-20T11:21:32;99941.63;;;1.53;77.88
31483;BME280;18103;52.246;8.052;2022-11-20T11:24:00;99936.81;;;1.46;77.29
31483;BME280;18103;52.246;8.052;2022-11-20T11:26:27;99930.22;;;1.56;76.82
31483;BME280;18103;52.246;8.052;2022-11-20T11:29:03;99931.66;;;1.81;78.36
31483;BME280;18103;52.246;8.052;2022-11-20T11:31:31;99930.03;;;1.96;77.91
31483;BME280;18103;52.246;8.052;2022-11-20T11:34:26;99920.19;;;2.02;78.57
31483;BME280;18103;52.246;8.052;2022-11-20T11:36:58;99919.72;;;2.12;77.78
31483;BME280;18103;52.246;8.052;2022-11-20T11:39:25;99923.78;;;2.17;78.88
31483;BME280;18103;52.246;8.052;2022-11-20T11:41:52;99913.66;;;2.29;77.10
31483;BME280;18103;52.246;8.052;2022-11-20T11:44:21;99913.56;;;2.48;77.27
31483;BME280;18103;52.246;8.052;2022-11-20T11:47:31;99914.31;;;2.50;77.89
31483;BME280;18103;52.246;8.052;2022-11-20T11:52:59;99915.56;;;2.76;76.83
31483;BME280;18103;52.246;8.052;2022-11-20T11:55:54;99910.34;;;2.76;76.02
31483;BME280;18103;52.246;8.052;2022-11-20T11:58:47;99898.69;;;2.66;74.89
31483;BME280;18103;52.246;8.052;2022-11-20T12:02:15;99899.41;;;2.85;74.91
31483;BME280;18103;52.246;8.052;2022-11-20T12:04:23;99899.53;;;3.00;73.89
31483;BME280;18103;52.246;8.052;2022-11-20T12:07:15;99900.44;;;2.99;73.82
31483;BME280;18103;52.246;8.052;2022-11-20T12:09:49;99894.88;;;2.89;72.22
31483;BME280;18103;52.246;8.052;2022-11-20T12:12:20;99889.59;;;2.90;73.18
31483;BME280;18103;52.246;8.052;2022-11-20T12:14:48;99878.91;;;2.95;72.94
31483;BME280;18103;52.246;8.052;2022-11-20T12:17:16;99881.03;;;2.88;72.89
31483;BME280;18103;52.246;8.052;2022-11-20T12:19:43;99878.41;;;2.88;71.61
31483;BME280;18103;52.246;8.052;2022-11-20T12:30:07;99864.69;;;2.69;72.48
31483;BME280;18103;52.246;8.052;2022-11-20T12:43:30;99849.19;;;2.50;73.07
31483;BME280;18103;52.246;8.052;2022-11-20T12:46:37;99852.50;;;2.36;73.42
31483;BME280;18103;52.246;8.052;2022-11-20T12:55:56;99845.59;;;2.52;72.67
31483;BME280;18103;52.246;8.052;2022-11-20T12:58:10;99839.38;;;2.55;74.07
31483;BME280;18103;52.246;8.052;2022-11-20T13:01:06;99836.84;;;2.53;72.98
31483;BME280;18103;52.246;8.052;2022-11-20T13:03:36;99844.31;;;2.60;72.79
31483;BME280;18103;52.246;8.052;2022-11-20T13:08:49;99843.91;;;2.51;72.51
31483;BME280;18103;52.246;8.052;2022-11-20T13:11:23;99840.22;;;2.87;72.33
31483;BME280;18103;52.246;8.052;2022-11-20T13:14:13;99832.81;;;2.80;72.08
31483;BME280;18103;52.246;8.052;2022-11-20T13:17:24;99836.09;;;2.99;72.58
31483;BME280;18103;52.246;8.052;2022-11-20T13:19:30;99825.84;;;3.12;72.58
31483;BME280;18103;52.246;8.052;2022-11-20T13:21:56;99834.59;;;3.11;72.14
31483;BME280;18103;52.246;8.052;2022-11-20T13:29:37;99816.06;;;3.16;71.83
31483;BME280;18103;52.246;8.052;2022-11-20T13:32:17;99808.19;;;3.01;73.02
31483;BME280;18103;52.246;8.052;2022-11-20T13:35:04;99811.13;;;3.11;71.79
31483;BME280;18103;52.246;8.052;2022-11-20T13:37:32;99795.66;;;2.92;72.87
31483;BME280;18103;52.246;8.052;2022-11-20T13:42:36;99782.38;;;2.97;72.84
31483;BME280;18103;52.246;8.052;2022-11-20T13:45:09;99776.44;;;3.09;72.39
31483;BME280;18103;52.246;8.052;2022-11-20T13:47:36;99768.16;;;3.02;72.22
31483;BME280;18103;52.246;8.052;2022-11-20T13:50:04;99767.06;;;2.90;72.95
31483;BME280;18103;52.246;8.052;2022-11-20T13:52:47;99759.19;;;2.76;72.67
31483;BME280;18103;52.246;8.052;2022-11-20T14:01:30;99754.41;;;2.84;71.96
31483;BME280;18103;52.246;8.052;2022-11-20T14:04:05;99750.84;;;2.85;71.95
31483;BME280;18103;52.246;8.052;2022-11-20T14:06:34;99740.88;;;2.62;73.79
31483;BME280;18103;52.246;8.052;2022-11-20T14:09:04;99734.56;;;2.66;73.72
31483;BME280;18103;52.246;8.052;2022-11-20T14:11:30;99733.78;;;2.80;73.69
31483;BME280;18103;52.246;8.052;2022-11-20T14:16:40;99724.06;;;2.67;73.94
31483;BME280;18103;52.246;8.052;2022-11-20T14:21:51;99717.59;;;2.74;74.26
31483;BME280;18103;52.246;8.052;2022-11-20T14:24:22;99712.88;;;2.65;74.63
31483;BME280;18103;52.246;8.052;2022-11-20T14:26:49;99712.47;;;2.57;75.31
31483;BME280;18103;52.246;8.052;2022-11-20T14:29:26;99705.50;;;2.58;75.22
31483;BME280;18103;52.246;8.052;2022-11-20T14:31:53;99708.53;;;2.50;75.62
31483;BME280;18103;52.246;8.052;2022-11-20T14:34:23;99708.97;;;2.42;76.55
31483;BME280;18103;52.246;8.052;2022-11-20T14:36:53;99706.69;;;2.36;76.60